createdAt,value
2022-07-26T00:00:07.363Z,100163.50
2022-07-26T00:02:35.290Z,100162.53
2022-07-26T00:05:04.243Z,100167.00
2022-07-26T00:07:36.433Z,100169.03
2022-07-26T00:10:07.380Z,100167.88
2022-07-26T00:12:35.462Z,100163.44
2022-07-26T00:15:04.915Z,100177.03
2022-07-26T00:17:33.953Z,100179.25
2022-07-26T00:20:01.975Z,100189.16
2022-07-26T00:22:41.795Z,100172.53
2022-07-26T00:25:22.607Z,100178.50
2022-07-26T00:27:52.768Z,100165.16
2022-07-26T00:30:21.301Z,100176.56
2022-07-26T00:32:49.465Z,100182.38
2022-07-26T00:35:19.690Z,100166.81
2022-07-26T00:37:48.683Z,100182.56
2022-07-26T00:40:17.070Z,100180.91
2022-07-26T00:42:46.118Z,100186.88
2022-07-26T00:45:16.388Z,100192.66
2022-07-26T00:47:44.621Z,100186.22
2022-07-26T00:50:16.438Z,100191.19
2022-07-26T00:52:46.606Z,100180.28
2022-07-26T00:55:16.152Z,100185.25
2022-07-26T00:57:44.448Z,100183.09
2022-07-26T01:00:18.589Z,100181.47
2022-07-26T01:02:47.611Z,100185.97
2022-07-26T01:05:16.305Z,100178.16
2022-07-26T01:07:45.795Z,100189.25
2022-07-26T01:10:14.968Z,100176.88
2022-07-26T01:12:44.666Z,100186.78
2022-07-26T01:15:15.012Z,100192.72
2022-07-26T01:17:46.715Z,100190.59
2022-07-26T01:20:15.709Z,100180.06
2022-07-26T01:25:43.304Z,100174.19
2022-07-26T01:28:12.141Z,100176.97
2022-07-26T01:30:50.313Z,100175.69
2022-07-26T01:33:18.625Z,100174.81
2022-07-26T01:35:46.667Z,100165.09
2022-07-26T01:38:18.487Z,100175.81
2022-07-26T01:40:46.502Z,100182.63
2022-07-26T01:43:14.575Z,100173.31
2022-07-26T01:45:42.832Z,100174.50
2022-07-26T01:48:11.100Z,100176.63
2022-07-26T01:50:39.369Z,100174.06
2022-07-26T01:53:08.415Z,100173.16
2022-07-26T01:55:37.359Z,100183.13
2022-07-26T01:58:06.996Z,100180.91
2022-07-26T02:00:35.768Z,100172.19
2022-07-26T02:03:04.129Z,100174.91
2022-07-26T02:05:32.420Z,100179.88
2022-07-26T02:08:00.745Z,100174.22
2022-07-26T02:10:47.619Z,100175.63
2022-07-26T02:13:15.889Z,100165.13
2022-07-26T02:15:44.038Z,100167.03
2022-07-26T02:18:12.491Z,100176.91
2022-07-26T02:20:40.521Z,100161.66
2022-07-26T02:23:08.558Z,100161.59
2022-07-26T02:25:37.732Z,100165.41
2022-07-26T02:28:06.008Z,100169.91
2022-07-26T02:30:34.415Z,100161.03
2022-07-26T02:33:02.537Z,100154.56
2022-07-26T02:35:32.711Z,100149.94
2022-07-26T02:38:05.988Z,100164.94
2022-07-26T02:40:35.740Z,100155.06
2022-07-26T02:43:05.200Z,100156.09
2022-07-26T02:45:33.452Z,100149.88
2022-07-26T02:48:01.801Z,100149.13
2022-07-26T02:50:30.574Z,100149.16
2022-07-26T02:52:58.639Z,100144.25
2022-07-26T02:55:28.285Z,100146.13
2022-07-26T02:57:56.450Z,100147.41
2022-07-26T03:00:27.500Z,100146.47
2022-07-26T03:02:56.599Z,100143.63
2022-07-26T03:05:24.709Z,100155.72
2022-07-26T03:07:52.805Z,100152.25
2022-07-26T03:10:21.210Z,100155.38
2022-07-26T03:12:49.332Z,100152.88
2022-07-26T03:15:17.307Z,100142.41
2022-07-26T03:17:45.533Z,100134.19
2022-07-26T03:20:13.804Z,100127.56
2022-07-26T03:22:43.496Z,100141.47
2022-07-26T03:25:12.740Z,100133.63
2022-07-26T03:27:40.803Z,100135.50
2022-07-26T03:30:09.607Z,100132.81
2022-07-26T03:32:38.846Z,100131.88
2022-07-26T03:35:09.043Z,100141.56
2022-07-26T03:37:46.113Z,100132.16
2022-07-26T03:40:19.259Z,100124.72
2022-07-26T03:42:48.545Z,100121.84
2022-07-26T03:45:17.064Z,100126.16
2022-07-26T03:47:49.450Z,100131.28
2022-07-26T03:50:17.405Z,100124.72
2022-07-26T03:52:45.457Z,100136.63
2022-07-26T03:55:32.883Z,100131.47
2022-07-26T03:58:00.864Z,100122.41
2022-07-26T04:00:29.002Z,100126.38
2022-07-26T04:02:57.224Z,100113.44
2022-07-26T04:05:26.198Z,100122.31
2022-07-26T04:07:54.389Z,100122.72
2022-07-26T04:10:25.499Z,100116.97
2022-07-26T04:12:53.620Z,100108.97
2022-07-26T04:15:40.395Z,100120.06
2022-07-26T04:18:08.405Z,100112.66
2022-07-26T04:20:36.417Z,100114.88
2022-07-26T04:23:11.336Z,100107.69
2022-07-26T04:25:41.850Z,100121.03
2022-07-26T04:28:11.736Z,100105.66
2022-07-26T04:30:40.623Z,100108.31
2022-07-26T04:33:08.740Z,100093.94
2022-07-26T04:35:36.985Z,100105.84
2022-07-26T04:38:06.970Z,100103.00
2022-07-26T04:40:35.087Z,100105.25
2022-07-26T04:43:15.945Z,100110.13
2022-07-26T04:45:46.173Z,100113.81
2022-07-26T04:48:15.441Z,100120.81
2022-07-26T04:50:45.846Z,100116.75
2022-07-26T04:53:14.067Z,100092.53
2022-07-26T04:55:42.940Z,100114.31
2022-07-26T04:58:11.923Z,100114.53
2022-07-26T05:01:09.000Z,100112.88
2022-07-26T05:03:28.286Z,100106.50
2022-07-26T05:05:56.303Z,100111.63
2022-07-26T05:08:24.316Z,100113.06
2022-07-26T05:10:55.441Z,100112.44
2022-07-26T05:13:30.701Z,100116.97
2022-07-26T05:16:02.332Z,100113.03
2022-07-26T05:18:31.705Z,100106.84
2022-07-26T05:21:10.621Z,100101.91
2022-07-26T05:23:38.773Z,100111.97
2022-07-26T05:26:06.844Z,100112.16
2022-07-26T05:28:35.724Z,100107.00
2022-07-26T05:31:03.757Z,100097.75
2022-07-26T05:33:31.861Z,100105.09
2022-07-26T05:36:00.177Z,100105.66
2022-07-26T05:38:28.298Z,100103.13
2022-07-26T05:43:42.130Z,100098.94
2022-07-26T05:46:12.333Z,100098.56
2022-07-26T05:48:41.212Z,100099.81
2022-07-26T05:51:12.374Z,100095.91
2022-07-26T05:53:40.783Z,100092.84
2022-07-26T05:56:09.258Z,100091.88
2022-07-26T05:58:38.185Z,100103.41
2022-07-26T06:01:06.365Z,100103.19
2022-07-26T06:03:34.448Z,100106.75
2022-07-26T06:06:02.675Z,100110.91
2022-07-26T06:08:30.997Z,100106.63
2022-07-26T06:10:59.768Z,100110.13
2022-07-26T06:13:29.430Z,100113.59
2022-07-26T06:15:57.339Z,100082.59
2022-07-26T06:18:25.624Z,100104.34
2022-07-26T06:21:14.802Z,100101.25
2022-07-26T06:23:43.920Z,100101.63
2022-07-26T06:26:12.900Z,100102.19
2022-07-26T06:28:41.927Z,100112.25
2022-07-26T06:31:09.912Z,100105.06
2022-07-26T06:33:38.254Z,100104.66
2022-07-26T06:36:09.048Z,100100.31
2022-07-26T06:38:37.360Z,100102.78
2022-07-26T06:41:05.575Z,100108.13
2022-07-26T06:43:35.673Z,100108.94
2022-07-26T06:46:03.867Z,100110.13
2022-07-26T06:48:31.969Z,100102.66
2022-07-26T06:51:01.696Z,100102.78
2022-07-26T06:53:47.948Z,100103.13
2022-07-26T06:56:18.911Z,100108.25
2022-07-26T06:58:47.374Z,100100.66
2022-07-26T07:01:51.374Z,100108.69
2022-07-26T07:04:05.087Z,100096.50
2022-07-26T07:06:33.327Z,100111.09
2022-07-26T07:09:01.321Z,100097.91
2022-07-26T07:11:31.832Z,100095.28
2022-07-26T07:16:46.734Z,100086.69
2022-07-26T07:19:14.747Z,100098.63
2022-07-26T07:21:42.771Z,100082.63
2022-07-26T07:24:11.133Z,100087.16
2022-07-26T07:26:42.162Z,100088.41
2022-07-26T07:29:13.516Z,100063.97
2022-07-26T07:31:49.153Z,100073.56
2022-07-26T07:34:19.656Z,100078.72
2022-07-26T07:36:50.718Z,100084.28
2022-07-26T07:39:19.534Z,100086.19
2022-07-26T07:41:48.998Z,100078.38
2022-07-26T07:44:17.646Z,100081.91
2022-07-26T07:46:45.680Z,100076.16
2022-07-26T07:49:13.973Z,100085.41
2022-07-26T07:51:42.539Z,100075.09
2022-07-26T07:54:16.570Z,100079.25
2022-07-26T07:56:44.874Z,100088.63
2022-07-26T07:59:14.801Z,100077.13
2022-07-26T08:01:43.134Z,100079.34
2022-07-26T08:04:13.184Z,100090.03
2022-07-26T08:06:41.542Z,100073.34
2022-07-26T08:09:09.836Z,100078.53
2022-07-26T08:11:41.869Z,100082.91
2022-07-26T08:14:11.494Z,100077.56
2022-07-26T08:16:41.326Z,100084.88
2022-07-26T08:19:09.785Z,100074.63
2022-07-26T08:21:39.761Z,100070.41
2022-07-26T08:24:08.228Z,100075.38
2022-07-26T08:26:38.141Z,100070.31
2022-07-26T08:29:07.347Z,100078.84
2022-07-26T08:31:35.464Z,100074.81
2022-07-26T08:34:03.697Z,100077.94
2022-07-26T08:36:33.243Z,100067.06
2022-07-26T08:39:02.618Z,100077.13
2022-07-26T08:41:31.920Z,100073.97
2022-07-26T08:44:13.931Z,100069.38
2022-07-26T08:46:43.829Z,100072.22
2022-07-26T08:49:13.180Z,100067.47
2022-07-26T08:51:45.543Z,100063.22
2022-07-26T08:54:16.343Z,100064.34
2022-07-26T08:56:53.179Z,100064.19
2022-07-26T08:59:24.582Z,100060.97
2022-07-26T09:02:08.835Z,100066.59
2022-07-26T09:04:44.501Z,100070.31
2022-07-26T09:07:20.799Z,100069.88
2022-07-26T09:10:00.675Z,100066.50
2022-07-26T09:12:31.825Z,100072.63
2022-07-26T09:15:01.063Z,100066.47
2022-07-26T09:17:47.539Z,100069.78
2022-07-26T09:20:25.947Z,100062.63
2022-07-26T09:23:08.855Z,100065.13
2022-07-26T09:25:42.414Z,100060.22
2022-07-26T09:28:31.708Z,100055.28
2022-07-26T09:31:03.973Z,100045.19
2022-07-26T09:33:52.881Z,100055.84
2022-07-26T09:36:22.359Z,100063.00
2022-07-26T09:38:53.410Z,100064.41
2022-07-26T09:41:40.764Z,100058.69
2022-07-26T09:44:25.689Z,100056.06
2022-07-26T09:47:00.522Z,100056.09
2022-07-26T09:49:40.575Z,100055.13
2022-07-26T09:52:22.460Z,100061.28
2022-07-26T09:54:50.637Z,100060.09
2022-07-26T09:57:20.543Z,100060.94
2022-07-26T09:59:48.515Z,100068.16
2022-07-26T10:02:16.625Z,100066.28
2022-07-26T10:04:45.079Z,100058.09
2022-07-26T10:07:14.087Z,100051.13
2022-07-26T10:10:12.145Z,100059.97
2022-07-26T10:12:44.823Z,100059.09
2022-07-26T10:15:50.726Z,100051.25
2022-07-26T10:18:39.269Z,100056.59
2022-07-26T10:21:21.544Z,100053.75
2022-07-26T10:23:51.254Z,100053.34
2022-07-26T10:26:35.409Z,100053.78
2022-07-26T10:29:18.902Z,100046.41
2022-07-26T10:32:09.785Z,100052.78
2022-07-26T10:34:43.426Z,100048.88
2022-07-26T10:37:23.706Z,100043.47
2022-07-26T10:40:16.615Z,100042.19
2022-07-26T10:42:46.021Z,100054.09
2022-07-26T10:45:24.249Z,100041.97
2022-07-26T10:48:15.342Z,100039.91
2022-07-26T10:50:45.885Z,100035.16
2022-07-26T10:53:26.057Z,100039.91
2022-07-26T10:56:00.857Z,100032.09
2022-07-26T10:58:28.871Z,100044.44
2022-07-26T11:01:02.341Z,100039.06
2022-07-26T11:03:39.214Z,100037.22
2022-07-26T11:06:30.486Z,100032.91
2022-07-26T11:08:59.506Z,100036.84
2022-07-26T11:11:33.059Z,100030.50
2022-07-26T11:14:12.499Z,100016.97
2022-07-26T11:16:46.237Z,100027.50
2022-07-26T11:19:20.485Z,100020.94
2022-07-26T11:21:55.386Z,100018.06
2022-07-26T11:24:23.740Z,100012.31
2022-07-26T11:26:53.004Z,100008.44
2022-07-26T11:29:38.938Z,100015.44
2022-07-26T11:32:29.887Z,100010.72
2022-07-26T11:35:06.123Z,100010.56
2022-07-26T11:37:34.294Z,100010.78
2022-07-26T11:40:02.447Z,100002.19
2022-07-26T11:42:31.145Z,100018.81
2022-07-26T11:44:59.401Z,100013.91
2022-07-26T11:47:27.894Z,100021.09
2022-07-26T11:52:44.497Z,100008.81
2022-07-26T11:55:13.212Z,100006.97
2022-07-26T11:57:41.278Z,100011.91
2022-07-26T12:00:12.013Z,99983.41
2022-07-26T12:02:40.349Z,100004.53
2022-07-26T12:05:23.550Z,100000.41
2022-07-26T12:07:57.341Z,100003.28
2022-07-26T12:10:25.690Z,100003.28
2022-07-26T12:13:16.469Z,99998.78
2022-07-26T12:15:46.624Z,99994.88
2022-07-26T12:18:29.597Z,99983.78
2022-07-26T12:21:06.715Z,99988.50
2022-07-26T12:23:51.827Z,99994.06
2022-07-26T12:26:31.608Z,99989.53
2022-07-26T12:29:22.608Z,99998.16
2022-07-26T12:32:14.050Z,100000.44
2022-07-26T12:34:56.417Z,99991.22
2022-07-26T12:37:39.442Z,99998.00
2022-07-26T12:40:17.233Z,100002.13
2022-07-26T12:43:01.281Z,99994.97
2022-07-26T12:45:35.869Z,99995.59
2022-07-26T12:48:11.553Z,99994.59
2022-07-26T12:50:39.857Z,100004.25
2022-07-26T12:53:12.706Z,99999.31
2022-07-26T12:55:41.353Z,100001.16
2022-07-26T12:58:09.960Z,100001.38
2022-07-26T13:00:38.086Z,100000.97
2022-07-26T13:03:06.090Z,99989.47
2022-07-26T13:05:36.563Z,99990.69
2022-07-26T13:08:04.785Z,99994.00
2022-07-26T13:10:54.442Z,99996.44
2022-07-26T13:13:25.062Z,99993.59
2022-07-26T13:15:53.113Z,100001.38
2022-07-26T13:18:22.749Z,99987.84
2022-07-26T13:20:50.725Z,99993.00
2022-07-26T13:23:21.399Z,99988.28
2022-07-26T13:25:51.461Z,99999.78
2022-07-26T13:28:19.616Z,99995.88
2022-07-26T13:30:47.764Z,99999.19
2022-07-26T13:33:17.631Z,100003.28
2022-07-26T13:35:45.548Z,99996.91
2022-07-26T13:38:20.620Z,99992.19
2022-07-26T13:40:51.115Z,100000.78
2022-07-26T13:43:19.170Z,99992.78
2022-07-26T13:45:48.278Z,99994.44
2022-07-26T13:48:16.397Z,99978.81
2022-07-26T13:50:44.490Z,99987.84
2022-07-26T13:53:13.660Z,99987.84
2022-07-26T13:55:41.784Z,99987.41
2022-07-26T13:58:10.360Z,99987.22
2022-07-26T14:00:41.923Z,99982.91
2022-07-26T14:03:10.204Z,99986.16
2022-07-26T14:05:38.339Z,99991.66
2022-07-26T14:08:07.155Z,99994.94
2022-07-26T14:10:40.179Z,99999.22
2022-07-26T14:13:09.562Z,99996.34
2022-07-26T14:15:37.796Z,99994.28
2022-07-26T14:18:06.349Z,99993.84
2022-07-26T14:20:34.605Z,99978.25
2022-07-26T14:23:02.655Z,99984.81
2022-07-26T14:25:33.282Z,99990.75
2022-07-26T14:28:01.810Z,100003.66
2022-07-26T14:30:30.030Z,100006.44
2022-07-26T14:33:01.642Z,100002.13
2022-07-26T14:35:29.768Z,100000.22
2022-07-26T14:37:57.906Z,100002.66
2022-07-26T14:40:27.560Z,99997.09
2022-07-26T14:42:55.560Z,99995.03
2022-07-26T14:45:23.598Z,99990.31
2022-07-26T14:47:52.869Z,99993.56
2022-07-26T14:50:23.584Z,99991.69
2022-07-26T14:52:51.608Z,99985.28
2022-07-26T14:55:25.002Z,99990.34
2022-07-26T14:57:54.065Z,99991.13
2022-07-26T15:00:22.174Z,99986.78
2022-07-26T15:02:51.853Z,99982.84
2022-07-26T15:05:20.557Z,99983.94
2022-07-26T15:07:48.607Z,99983.03
2022-07-26T15:10:16.948Z,99970.25
2022-07-26T15:12:45.431Z,99986.19
2022-07-26T15:15:13.484Z,99991.88
2022-07-26T15:17:42.418Z,99995.31
2022-07-26T15:20:10.525Z,99981.97
2022-07-26T15:22:38.818Z,99995.19
2022-07-26T15:25:07.458Z,99984.69
2022-07-26T15:27:35.639Z,99990.94
2022-07-26T15:30:06.898Z,99997.81
2022-07-26T15:32:39.489Z,99997.56
2022-07-26T15:35:08.129Z,99998.50
2022-07-26T15:37:44.588Z,99991.28
2022-07-26T15:40:13.054Z,99989.19
2022-07-26T15:42:44.159Z,99991.22
2022-07-26T15:45:13.782Z,99999.53
2022-07-26T15:47:54.813Z,99993.78
2022-07-26T15:50:24.252Z,99998.19
2022-07-26T15:52:53.447Z,99982.06
2022-07-26T15:55:22.380Z,99994.31
2022-07-26T15:57:50.525Z,100001.38
2022-07-26T16:00:19.066Z,100006.41
2022-07-26T16:02:47.311Z,100002.84
2022-07-26T16:05:15.478Z,99985.75
2022-07-26T16:07:44.424Z,99998.63
2022-07-26T16:10:14.356Z,100003.66
2022-07-26T16:12:42.854Z,100003.38
2022-07-26T16:15:12.603Z,100011.72
2022-07-26T16:17:40.870Z,100003.66
2022-07-26T16:20:09.981Z,100007.81
2022-07-26T16:22:42.370Z,100010.13
2022-07-26T16:25:13.817Z,99999.88
2022-07-26T16:27:44.330Z,100004.25
2022-07-26T16:30:15.587Z,100007.44
2022-07-26T16:32:44.160Z,100016.13
2022-07-26T16:35:12.588Z,100016.66
2022-07-26T16:37:42.165Z,100010.25
2022-07-26T16:40:11.167Z,100009.63
2022-07-26T16:42:39.379Z,100003.84
2022-07-26T16:45:09.563Z,100008.03
2022-07-26T16:47:37.802Z,99995.69
2022-07-26T16:50:06.731Z,99996.50
2022-07-26T16:52:35.432Z,100002.81
2022-07-26T16:55:04.854Z,99999.81
2022-07-26T16:57:32.822Z,100004.47
2022-07-26T17:00:12.457Z,99995.59
2022-07-26T17:02:40.990Z,99997.28
2022-07-26T17:05:09.780Z,99987.22
2022-07-26T17:07:40.968Z,99992.25
2022-07-26T17:10:11.197Z,99991.59
2022-07-26T17:12:39.663Z,99975.94
2022-07-26T17:15:08.477Z,99987.81
2022-07-26T17:17:51.851Z,99980.25
2022-07-26T17:20:21.837Z,99983.41
2022-07-26T17:22:50.862Z,99983.75
2022-07-26T17:25:19.849Z,99985.75
2022-07-26T17:27:51.032Z,99985.25
2022-07-26T17:30:18.945Z,99984.31
2022-07-26T17:32:46.972Z,99986.66
2022-07-26T17:35:15.376Z,99973.66
2022-07-26T17:37:43.383Z,99986.34
2022-07-26T17:40:12.428Z,99989.81
2022-07-26T17:42:41.570Z,99989.69
2022-07-26T17:45:10.013Z,99984.06
2022-07-26T17:47:38.032Z,99989.69
2022-07-26T17:52:57.066Z,99979.84
2022-07-26T17:55:25.315Z,99978.91
2022-07-26T17:57:53.651Z,99979.91
2022-07-26T18:00:23.557Z,99977.44
2022-07-26T18:02:58.549Z,99972.31
2022-07-26T18:05:33.354Z,99966.50
2022-07-26T18:08:07.261Z,99985.19
2022-07-26T18:10:35.261Z,99971.66
2022-07-26T18:13:03.300Z,99979.25
2022-07-26T18:15:31.504Z,99963.06
2022-07-26T18:17:59.473Z,99969.50
2022-07-26T18:20:27.626Z,99971.31
2022-07-26T18:22:57.906Z,99963.41
2022-07-26T18:25:26.929Z,99965.06
2022-07-26T18:27:55.196Z,99961.78
2022-07-26T18:30:23.396Z,99970.56
2022-07-26T18:32:51.513Z,99983.59
2022-07-26T18:35:19.527Z,99978.31
2022-07-26T18:37:47.972Z,99987.59
2022-07-26T18:40:16.101Z,99979.00
2022-07-26T18:42:44.188Z,99969.94
2022-07-26T18:45:13.344Z,99962.69
2022-07-26T18:47:42.659Z,99973.91
2022-07-26T18:50:12.778Z,99970.78
2022-07-26T18:52:45.586Z,99960.53
2022-07-26T18:55:15.400Z,99962.53
2022-07-26T18:57:45.155Z,99963.53
2022-07-26T19:00:19.916Z,99961.88
2022-07-26T19:02:48.599Z,99963.69
2022-07-26T19:05:17.315Z,99958.25
2022-07-26T19:07:47.421Z,99948.19
2022-07-26T19:10:15.589Z,99957.13
2022-07-26T19:12:45.897Z,99942.75
2022-07-26T19:15:17.898Z,99943.41
2022-07-26T19:17:46.148Z,99941.78
2022-07-26T19:20:14.834Z,99950.38
2022-07-26T19:22:47.675Z,99944.59
2022-07-26T19:25:17.029Z,99942.94
2022-07-26T19:27:47.473Z,99949.38
2022-07-26T19:30:15.640Z,99950.72
2022-07-26T19:32:43.634Z,99952.84
2022-07-26T19:35:11.684Z,99955.63
2022-07-26T19:37:41.851Z,99954.97
2022-07-26T19:40:10.456Z,99950.84
2022-07-26T19:42:38.610Z,99953.00
2022-07-26T19:45:09.525Z,99945.25
2022-07-26T19:47:38.051Z,99954.00
2022-07-26T19:50:09.152Z,99951.34
2022-07-26T19:52:37.373Z,99945.41
2022-07-26T19:55:05.946Z,99950.19
2022-07-26T19:57:34.041Z,99944.25
2022-07-26T20:00:05.686Z,99938.31
2022-07-26T20:02:33.919Z,99938.31
2022-07-26T20:05:02.120Z,99940.13
2022-07-26T20:07:31.078Z,99948.53
2022-07-26T20:09:59.135Z,99943.44
2022-07-26T20:12:27.176Z,99942.41
2022-07-26T20:14:55.193Z,99938.78
2022-07-26T20:17:24.133Z,99949.81
2022-07-26T20:19:53.839Z,99953.63
2022-07-26T20:22:24.209Z,99936.31
2022-07-26T20:24:55.928Z,99928.56
2022-07-26T20:27:25.326Z,99934.13
2022-07-26T20:30:00.391Z,99929.16
2022-07-26T20:32:28.957Z,99933.28
2022-07-26T20:34:56.931Z,99924.41
2022-07-26T20:37:25.082Z,99926.38
2022-07-26T20:39:53.105Z,99922.91
2022-07-26T20:42:21.895Z,99925.38
2022-07-26T20:44:51.864Z,99936.59
2022-07-26T20:47:20.026Z,99927.34
2022-07-26T20:49:48.051Z,99938.88
2022-07-26T20:52:16.276Z,99939.38
2022-07-26T20:54:44.393Z,99950.25
2022-07-26T20:57:12.405Z,99944.31
2022-07-26T20:59:40.513Z,99939.00
2022-07-26T21:02:08.739Z,99947.59
2022-07-26T21:04:36.933Z,99947.59
2022-07-26T21:07:05.112Z,99939.84
2022-07-26T21:09:33.170Z,99955.81
2022-07-26T21:12:01.419Z,99948.91
2022-07-26T21:14:29.662Z,99947.06
2022-07-26T21:16:57.724Z,99958.28
2022-07-26T21:19:25.802Z,99954.97
2022-07-26T21:21:57.768Z,99952.00
2022-07-26T21:24:25.756Z,99958.78
2022-07-26T21:26:55.938Z,99958.94
2022-07-26T21:29:25.274Z,99964.38
2022-07-26T21:31:54.561Z,99959.56
2022-07-26T21:34:22.877Z,99964.34
2022-07-26T21:36:53.180Z,99958.09
2022-07-26T21:39:21.466Z,99967.66
2022-07-26T21:41:49.576Z,99962.53
2022-07-26T21:44:17.734Z,99972.25
2022-07-26T21:46:45.845Z,99965.31
2022-07-26T21:49:14.206Z,99954.56
2022-07-26T21:51:42.797Z,99966.31
2022-07-26T21:54:10.889Z,99965.31
2022-07-26T21:56:38.942Z,99950.44
2022-07-26T21:59:07.092Z,99963.34
2022-07-26T22:01:35.140Z,99949.66
2022-07-26T22:04:03.204Z,99952.59
2022-07-26T22:06:31.454Z,99958.66
2022-07-26T22:08:59.515Z,99961.09
2022-07-26T22:11:27.499Z,99958.66
2022-07-26T22:13:55.873Z,99970.84
2022-07-26T22:16:23.910Z,99957.00
2022-07-26T22:18:51.945Z,99963.44
2022-07-26T22:21:21.230Z,99958.47
2022-07-26T22:23:50.038Z,99957.66
2022-07-26T22:26:18.091Z,99949.88
2022-07-26T22:28:46.255Z,99954.81
2022-07-26T22:31:14.298Z,99959.25
2022-07-26T22:33:42.546Z,99942.78
2022-07-26T22:36:10.858Z,99949.34
2022-07-26T22:38:38.874Z,99950.03
2022-07-26T22:41:06.885Z,99951.16
2022-07-26T22:43:35.076Z,99951.47
2022-07-26T22:46:03.288Z,99949.69
2022-07-26T22:48:32.424Z,99945.38
2022-07-26T22:51:03.050Z,99934.69
2022-07-26T22:53:31.104Z,99942.94
2022-07-26T22:55:59.208Z,99932.38
2022-07-26T22:58:31.340Z,99945.25
2022-07-26T23:00:59.490Z,99939.69
2022-07-26T23:03:28.017Z,99944.47
2022-07-26T23:05:58.946Z,99948.13
2022-07-26T23:08:46.533Z,99935.63
2022-07-26T23:11:15.744Z,99933.69
2022-07-26T23:13:43.704Z,99939.00
2022-07-26T23:16:11.861Z,99941.00
2022-07-26T23:18:42.678Z,99938.84
2022-07-26T23:21:10.737Z,99933.91
2022-07-26T23:23:38.738Z,99932.13
2022-07-26T23:26:06.917Z,99937.22
2022-07-26T23:28:37.711Z,99949.28
2022-07-26T23:31:11.821Z,99936.47
2022-07-26T23:33:50.906Z,99940.25
2022-07-26T23:36:26.698Z,99949.53
2022-07-26T23:39:00.182Z,99960.41
2022-07-26T23:41:28.678Z,99954.00
2022-07-26T23:43:56.946Z,99937.66
2022-07-26T23:46:25.904Z,99939.78
2022-07-26T23:48:55.624Z,99940.06
2022-07-26T23:51:23.844Z,99947.50
2022-07-26T23:53:52.563Z,99949.94
2022-07-26T23:56:20.583Z,99946.91
2022-07-26T23:58:48.947Z,99939.78
